sensor_id;sensor_type;location;lat;lon;timestamp;temperature;humidity
5930;DHT22;2990;48.746;9.236;2023-12-20T00:00:18;5.20;1.00
5930;DHT22;2990;48.746;9.236;2023-12-20T00:02:43;5.30;1.00
5930;DHT22;2990;48.746;9.236;2023-12-20T00:05:13;5.30;1.00
5930;DHT22;2990;48.746;9.236;2023-12-20T00:07:39;5.20;1.00
5930;DHT22;2990;48.746;9.236;2023-12-20T00:10:05;5.30;1.00
5930;DHT22;2990;48.746;9.236;2023-12-20T00:12:30;5.30;1.00
5930;DHT22;2990;48.746;9.236;2023-12-20T00:14:56;5.30;1.00
5930;DHT22;2990;48.746;9.236;2023-12-20T00:17:21;5.30;1.00
5930;DHT22;2990;48.746;9.236;2023-12-20T00:19:47;5.30;1.00
5930;DHT22;2990;48.746;9.236;2023-12-20T00:22:12;5.30;1.00
5930;DHT22;2990;48.746;9.236;2023-12-20T00:24:38;5.30;1.00
5930;DHT22;2990;48.746;9.236;2023-12-20T00:27:03;5.30;1.00
5930;DHT22;2990;48.746;9.236;2023-12-20T00:29:29;5.30;1.00
5930;DHT22;2990;48.746;9.236;2023-12-20T00:31:54;5.40;1.00
5930;DHT22;2990;48.746;9.236;2023-12-20T00:34:20;5.40;1.00
5930;DHT22;2990;48.746;9.236;2023-12-20T00:36:45;5.40;1.00
5930;DHT22;2990;48.746;9.236;2023-12-20T00:39:11;5.30;1.00
5930;DHT22;2990;48.746;9.236;2023-12-20T00:41:36;5.30;1.40
5930;DHT22;2990;48.746;9.236;2023-12-20T00:44:02;5.30;21.60
5930;DHT22;2990;48.746;9.236;2023-12-20T00:46:28;5.30;36.20
5930;DHT22;2990;48.746;9.236;2023-12-20T00:48:53;5.20;66.20
5930;DHT22;2990;48.746;9.236;2023-12-20T00:51:20;5.20;90.30
5930;DHT22;2990;48.746;9.236;2023-12-20T00:53:45;5.20;99.90
5930;DHT22;2990;48.746;9.236;2023-12-20T00:56:14;5.20;99.90
5930;DHT22;2990;48.746;9.236;2023-12-20T00:58:40;5.10;99.90
5930;DHT22;2990;48.746;9.236;2023-12-20T01:01:05;5.10;99.90
5930;DHT22;2990;48.746;9.236;2023-12-20T01:03:31;5.10;99.90
5930;DHT22;2990;48.746;9.236;2023-12-20T01:05:56;5.00;99.90
5930;DHT22;2990;48.746;9.236;2023-12-20T01:08:22;5.00;99.90
5930;DHT22;2990;48.746;9.236;2023-12-20T01:10:47;5.00;99.90
5930;DHT22;2990;48.746;9.236;2023-12-20T01:13:13;5.00;99.90
5930;DHT22;2990;48.746;9.236;2023-12-20T01:15:38;5.00;99.90
5930;DHT22;2990;48.746;9.236;2023-12-20T01:18:04;5.00;99.90
5930;DHT22;2990;48.746;9.236;2023-12-20T01:20:30;5.00;99.90
5930;DHT22;2990;48.746;9.236;2023-12-20T01:22:55;5.00;99.90
5930;DHT22;2990;48.746;9.236;2023-12-20T01:25:21;4.90;99.90
5930;DHT22;2990;48.746;9.236;2023-12-20T01:27:46;4.90;99.90
5930;DHT22;2990;48.746;9.236;2023-12-20T01:30:15;4.90;99.90
5930;DHT22;2990;48.746;9.236;2023-12-20T01:32:44;4.90;99.90
5930;DHT22;2990;48.746;9.236;2023-12-20T01:35:16;4.80;99.90
5930;DHT22;2990;48.746;9.236;2023-12-20T01:37:49;4.80;99.90
5930;DHT22;2990;48.746;9.236;2023-12-20T01:40:35;4.80;99.90
5930;DHT22;2990;48.746;9.236;2023-12-20T01:43:10;4.80;99.90
5930;DHT22;2990;48.746;9.236;2023-12-20T01:45:37;4.80;99.90
5930;DHT22;2990;48.746;9.236;2023-12-20T01:48:05;4.80;99.90
5930;DHT22;2990;48.746;9.236;2023-12-20T01:50:38;4.70;99.90
5930;DHT22;2990;48.746;9.236;2023-12-20T01:53:10;4.70;99.90
5930;DHT22;2990;48.746;9.236;2023-12-20T01:55:40;4.70;99.90
5930;DHT22;2990;48.746;9.236;2023-12-20T01:58:09;4.70;99.90
5930;DHT22;2990;48.746;9.236;2023-12-20T02:00:36;4.70;99.90
5930;DHT22;2990;48.746;9.236;2023-12-20T02:03:06;4.60;99.90
5930;DHT22;2990;48.746;9.236;2023-12-20T02:05:33;4.70;99.90
5930;DHT22;2990;48.746;9.236;2023-12-20T02:08:00;4.70;99.90
5930;DHT22;2990;48.746;9.236;2023-12-20T02:10:44;4.70;99.90
5930;DHT22;2990;48.746;9.236;2023-12-20T02:13:18;4.70;99.90
5930;DHT22;2990;48.746;9.236;2023-12-20T02:15:47;4.70;99.90
5930;DHT22;2990;48.746;9.236;2023-12-20T02:18:12;4.70;99.90
5930;DHT22;2990;48.746;9.236;2023-12-20T02:20:43;4.70;99.90
5930;DHT22;2990;48.746;9.236;2023-12-20T02:23:09;4.70;99.90
5930;DHT22;2990;48.746;9.236;2023-12-20T02:25:34;4.70;99.90
5930;DHT22;2990;48.746;9.236;2023-12-20T02:28:03;4.70;99.90
5930;DHT22;2990;48.746;9.236;2023-12-20T02:30:29;4.70;99.90
5930;DHT22;2990;48.746;9.236;2023-12-20T02:32:55;4.70;99.90
5930;DHT22;2990;48.746;9.236;2023-12-20T02:35:24;4.70;99.90
5930;DHT22;2990;48.746;9.236;2023-12-20T02:37:50;4.70;99.90
5930;DHT22;2990;48.746;9.236;2023-12-20T02:40:15;4.70;99.90
5930;DHT22;2990;48.746;9.236;2023-12-20T02:42:41;4.70;99.90
5930;DHT22;2990;48.746;9.236;2023-12-20T02:45:07;4.60;99.90
5930;DHT22;2990;48.746;9.236;2023-12-20T02:47:36;4.70;99.90
5930;DHT22;2990;48.746;9.236;2023-12-20T02:50:02;4.70;99.90
5930;DHT22;2990;48.746;9.236;2023-12-20T02:52:30;4.70;99.90
5930;DHT22;2990;48.746;9.236;2023-12-20T02:54:59;4.80;99.90
5930;DHT22;2990;48.746;9.236;2023-12-20T02:57:24;4.70;99.90
5930;DHT22;2990;48.746;9.236;2023-12-20T02:59:53;4.70;99.90
5930;DHT22;2990;48.746;9.236;2023-12-20T03:02:25;4.60;99.90
5930;DHT22;2990;48.746;9.236;2023-12-20T03:04:50;4.60;99.90
5930;DHT22;2990;48.746;9.236;2023-12-20T03:07:16;4.60;99.90
5930;DHT22;2990;48.746;9.236;2023-12-20T03:09:42;4.60;99.90
5930;DHT22;2990;48.746;9.236;2023-12-20T03:12:10;4.70;99.90
5930;DHT22;2990;48.746;9.236;2023-12-20T03:14:35;4.70;99.90
5930;DHT22;2990;48.746;9.236;2023-12-20T03:17:04;4.60;99.90
5930;DHT22;2990;48.746;9.236;2023-12-20T03:19:32;4.60;99.90
5930;DHT22;2990;48.746;9.236;2023-12-20T03:22:10;4.80;99.90
5930;DHT22;2990;48.746;9.236;2023-12-20T03:24:38;4.60;99.90
5930;DHT22;2990;48.746;9.236;2023-12-20T03:27:17;4.60;99.90
5930;DHT22;2990;48.746;9.236;2023-12-20T03:29:42;4.60;99.90
5930;DHT22;2990;48.746;9.236;2023-12-20T03:32:10;4.60;99.90
5930;DHT22;2990;48.746;9.236;2023-12-20T03:34:48;4.60;99.90
5930;DHT22;2990;48.746;9.236;2023-12-20T03:37:16;4.60;99.90
5930;DHT22;2990;48.746;9.236;2023-12-20T03:39:41;4.60;99.90
5930;DHT22;2990;48.746;9.236;2023-12-20T03:42:07;4.60;99.90
5930;DHT22;2990;48.746;9.236;2023-12-20T03:44:41;4.60;99.90
5930;DHT22;2990;48.746;9.236;2023-12-20T03:47:07;4.70;99.90
5930;DHT22;2990;48.746;9.236;2023-12-20T03:49:36;4.60;99.90
5930;DHT22;2990;48.746;9.236;2023-12-20T03:52:07;4.50;99.90
5930;DHT22;2990;48.746;9.236;2023-12-20T03:54:39;4.60;99.90
5930;DHT22;2990;48.746;9.236;2023-12-20T03:57:07;4.60;99.90
5930;DHT22;2990;48.746;9.236;2023-12-20T03:59:37;4.60;99.90
5930;DHT22;2990;48.746;9.236;2023-12-20T04:02:03;4.70;99.90
5930;DHT22;2990;48.746;9.236;2023-12-20T04:04:29;4.60;99.90
5930;DHT22;2990;48.746;9.236;2023-12-20T04:07:04;4.50;99.90
5930;DHT22;2990;48.746;9.236;2023-12-20T04:09:29;4.50;99.90
5930;DHT22;2990;48.746;9.236;2023-12-20T04:11:55;4.50;99.90
5930;DHT22;2990;48.746;9.236;2023-12-20T04:14:21;4.50;99.90
5930;DHT22;2990;48.746;9.236;2023-12-20T04:17:02;4.40;99.90
5930;DHT22;2990;48.746;9.236;2023-12-20T04:19:31;4.40;99.90
5930;DHT22;2990;48.746;9.236;2023-12-20T04:21:56;4.40;99.90
5930;DHT22;2990;48.746;9.236;2023-12-20T04:24:22;4.40;99.90
5930;DHT22;2990;48.746;9.236;2023-12-20T04:26:54;4.40;99.90
5930;DHT22;2990;48.746;9.236;2023-12-20T04:29:20;4.30;99.90
5930;DHT22;2990;48.746;9.236;2023-12-20T04:31:45;4.30;99.90
5930;DHT22;2990;48.746;9.236;2023-12-20T04:34:14;4.30;99.90
5930;DHT22;2990;48.746;9.236;2023-12-20T04:36:43;4.30;99.90
5930;DHT22;2990;48.746;9.236;2023-12-20T04:39:16;4.30;99.90
5930;DHT22;2990;48.746;9.236;2023-12-20T04:41:42;4.30;99.90
5930;DHT22;2990;48.746;9.236;2023-12-20T04:44:07;4.20;99.90
5930;DHT22;2990;48.746;9.236;2023-12-20T04:46:33;4.20;99.90
5930;DHT22;2990;48.746;9.236;2023-12-20T04:49:07;4.20;99.90
5930;DHT22;2990;48.746;9.236;2023-12-20T04:51:33;4.20;99.90
5930;DHT22;2990;48.746;9.236;2023-12-20T04:54:02;4.20;99.90
5930;DHT22;2990;48.746;9.236;2023-12-20T04:56:38;4.20;99.90
5930;DHT22;2990;48.746;9.236;2023-12-20T04:59:20;4.20;99.90
5930;DHT22;2990;48.746;9.236;2023-12-20T05:02:12;4.20;99.90
5930;DHT22;2990;48.746;9.236;2023-12-20T05:04:37;4.20;99.90
5930;DHT22;2990;48.746;9.236;2023-12-20T05:07:05;4.20;99.90
5930;DHT22;2990;48.746;9.236;2023-12-20T05:12:10;4.20;99.90
5930;DHT22;2990;48.746;9.236;2023-12-20T05:14:35;4.10;99.90
5930;DHT22;2990;48.746;9.236;2023-12-20T05:17:01;4.10;99.90
5930;DHT22;2990;48.746;9.236;2023-12-20T05:19:28;4.10;99.90
5930;DHT22;2990;48.746;9.236;2023-12-20T05:21:54;4.20;99.90
5930;DHT22;2990;48.746;9.236;2023-12-20T05:24:19;4.10;99.90
5930;DHT22;2990;48.746;9.236;2023-12-20T05:26:45;4.10;99.90
5930;DHT22;2990;48.746;9.236;2023-12-20T05:29:10;4.10;99.90
5930;DHT22;2990;48.746;9.236;2023-12-20T05:31:36;4.10;99.90
5930;DHT22;2990;48.746;9.236;2023-12-20T05:34:01;4.20;99.90
5930;DHT22;2990;48.746;9.236;2023-12-20T05:36:27;4.10;99.90
5930;DHT22;2990;48.746;9.236;2023-12-20T05:38:53;4.10;99.90
5930;DHT22;2990;48.746;9.236;2023-12-20T05:41:19;4.10;99.90
5930;DHT22;2990;48.746;9.236;2023-12-20T05:43:46;4.10;99.90
5930;DHT22;2990;48.746;9.236;2023-12-20T05:46:12;4.10;99.90
5930;DHT22;2990;48.746;9.236;2023-12-20T05:48:37;4.10;99.90
5930;DHT22;2990;48.746;9.236;2023-12-20T05:51:03;4.10;99.90
5930;DHT22;2990;48.746;9.236;2023-12-20T05:53:29;4.10;99.90
5930;DHT22;2990;48.746;9.236;2023-12-20T05:55:54;4.10;99.90
5930;DHT22;2990;48.746;9.236;2023-12-20T05:58:20;4.20;99.90
5930;DHT22;2990;48.746;9.236;2023-12-20T06:00:45;4.10;99.90
5930;DHT22;2990;48.746;9.236;2023-12-20T06:03:11;4.10;99.90
5930;DHT22;2990;48.746;9.236;2023-12-20T06:05:36;4.10;99.90
5930;DHT22;2990;48.746;9.236;2023-12-20T06:08:02;4.10;99.90
5930;DHT22;2990;48.746;9.236;2023-12-20T06:10:28;4.10;99.90
5930;DHT22;2990;48.746;9.236;2023-12-20T06:12:54;4.20;99.90
5930;DHT22;2990;48.746;9.236;2023-12-20T06:15:20;4.20;99.90
5930;DHT22;2990;48.746;9.236;2023-12-20T06:17:46;4.20;99.90
5930;DHT22;2990;48.746;9.236;2023-12-20T06:20:12;4.20;99.90
5930;DHT22;2990;48.746;9.236;2023-12-20T06:22:38;4.20;99.90
5930;DHT22;2990;48.746;9.236;2023-12-20T06:25:04;4.20;99.90
5930;DHT22;2990;48.746;9.236;2023-12-20T06:27:30;4.20;99.90
5930;DHT22;2990;48.746;9.236;2023-12-20T06:29:58;4.20;99.90
5930;DHT22;2990;48.746;9.236;2023-12-20T06:32:24;4.20;99.90
5930;DHT22;2990;48.746;9.236;2023-12-20T06:34:50;4.20;99.90
5930;DHT22;2990;48.746;9.236;2023-12-20T06:37:15;4.20;99.90
5930;DHT22;2990;48.746;9.236;2023-12-20T06:39:41;4.20;99.90
5930;DHT22;2990;48.746;9.236;2023-12-20T06:42:06;4.20;99.90
5930;DHT22;2990;48.746;9.236;2023-12-20T06:44:32;4.20;99.90
5930;DHT22;2990;48.746;9.236;2023-12-20T06:46:58;4.10;99.90
5930;DHT22;2990;48.746;9.236;2023-12-20T06:49:23;4.20;99.90
5930;DHT22;2990;48.746;9.236;2023-12-20T06:51:49;4.20;99.90
5930;DHT22;2990;48.746;9.236;2023-12-20T06:54:14;4.10;99.90
5930;DHT22;2990;48.746;9.236;2023-12-20T06:56:40;4.10;99.90
5930;DHT22;2990;48.746;9.236;2023-12-20T06:59:06;4.10;99.90
5930;DHT22;2990;48.746;9.236;2023-12-20T07:01:32;4.10;99.90
5930;DHT22;2990;48.746;9.236;2023-12-20T07:03:57;4.10;99.90
5930;DHT22;2990;48.746;9.236;2023-12-20T07:06:23;4.20;99.90
5930;DHT22;2990;48.746;9.236;2023-12-20T07:08:49;4.20;99.90
5930;DHT22;2990;48.746;9.236;2023-12-20T07:11:14;4.20;99.90
5930;DHT22;2990;48.746;9.236;2023-12-20T07:13:40;4.20;99.90
5930;DHT22;2990;48.746;9.236;2023-12-20T07:16:06;4.20;99.90
5930;DHT22;2990;48.746;9.236;2023-12-20T07:18:31;4.20;99.90
5930;DHT22;2990;48.746;9.236;2023-12-20T07:20:57;4.20;99.90
5930;DHT22;2990;48.746;9.236;2023-12-20T07:23:22;4.20;99.90
5930;DHT22;2990;48.746;9.236;2023-12-20T07:25:48;4.20;99.90
5930;DHT22;2990;48.746;9.236;2023-12-20T07:28:13;4.20;99.90
5930;DHT22;2990;48.746;9.236;2023-12-20T07:30:39;4.20;99.90
5930;DHT22;2990;48.746;9.236;2023-12-20T07:33:05;4.20;99.90
5930;DHT22;2990;48.746;9.236;2023-12-20T07:35:30;4.20;99.90
5930;DHT22;2990;48.746;9.236;2023-12-20T07:37:56;4.20;99.90
5930;DHT22;2990;48.746;9.236;2023-12-20T07:40:21;4.20;99.90
5930;DHT22;2990;48.746;9.236;2023-12-20T07:42:47;4.30;99.90
5930;DHT22;2990;48.746;9.236;2023-12-20T07:45:12;4.30;99.90
5930;DHT22;2990;48.746;9.236;2023-12-20T07:47:38;4.30;99.90
5930;DHT22;2990;48.746;9.236;2023-12-20T07:50:04;4.30;99.90
5930;DHT22;2990;48.746;9.236;2023-12-20T07:52:30;4.30;99.90
5930;DHT22;2990;48.746;9.236;2023-12-20T07:54:55;4.20;99.90
5930;DHT22;2990;48.746;9.236;2023-12-20T07:57:21;4.20;99.90
5930;DHT22;2990;48.746;9.236;2023-12-20T07:59:46;4.20;99.90
5930;DHT22;2990;48.746;9.236;2023-12-20T08:02:12;4.10;99.90
5930;DHT22;2990;48.746;9.236;2023-12-20T08:04:37;4.10;99.90
5930;DHT22;2990;48.746;9.236;2023-12-20T08:07:03;4.10;99.90
5930;DHT22;2990;48.746;9.236;2023-12-20T08:09:29;4.10;99.90
5930;DHT22;2990;48.746;9.236;2023-12-20T08:11:55;4.10;99.90
5930;DHT22;2990;48.746;9.236;2023-12-20T08:14:21;4.10;99.90
5930;DHT22;2990;48.746;9.236;2023-12-20T08:16:47;4.10;99.90
5930;DHT22;2990;48.746;9.236;2023-12-20T08:19:13;4.10;99.90
5930;DHT22;2990;48.746;9.236;2023-12-20T08:21:39;4.10;99.90
5930;DHT22;2990;48.746;9.236;2023-12-20T08:24:04;4.10;99.90
5930;DHT22;2990;48.746;9.236;2023-12-20T08:26:30;4.10;99.90
5930;DHT22;2990;48.746;9.236;2023-12-20T08:28:56;4.10;99.90
5930;DHT22;2990;48.746;9.236;2023-12-20T08:31:21;4.10;99.90
5930;DHT22;2990;48.746;9.236;2023-12-20T08:33:48;4.10;99.90
5930;DHT22;2990;48.746;9.236;2023-12-20T08:36:14;4.10;99.90
5930;DHT22;2990;48.746;9.236;2023-12-20T08:38:39;4.20;99.90
5930;DHT22;2990;48.746;9.236;2023-12-20T08:41:06;4.10;99.90
5930;DHT22;2990;48.746;9.236;2023-12-20T08:43:32;4.10;99.90
5930;DHT22;2990;48.746;9.236;2023-12-20T08:45:57;4.10;99.90
5930;DHT22;2990;48.746;9.236;2023-12-20T08:48:23;4.10;99.90
5930;DHT22;2990;48.746;9.236;2023-12-20T08:50:48;4.00;99.90
5930;DHT22;2990;48.746;9.236;2023-12-20T08:53:15;4.00;99.90
5930;DHT22;2990;48.746;9.236;2023-12-20T08:55:42;3.90;99.90
5930;DHT22;2990;48.746;9.236;2023-12-20T08:58:07;3.90;99.90
5930;DHT22;2990;48.746;9.236;2023-12-20T09:00:34;3.90;99.90
5930;DHT22;2990;48.746;9.236;2023-12-20T09:03:00;3.80;99.90
5930;DHT22;2990;48.746;9.236;2023-12-20T09:05:26;3.70;99.90
5930;DHT22;2990;48.746;9.236;2023-12-20T09:07:51;3.70;99.90
5930;DHT22;2990;48.746;9.236;2023-12-20T09:10:17;3.70;99.90
5930;DHT22;2990;48.746;9.236;2023-12-20T09:12:53;3.70;99.90
5930;DHT22;2990;48.746;9.236;2023-12-20T09:15:25;3.70;99.90
5930;DHT22;2990;48.746;9.236;2023-12-20T09:17:50;3.70;99.90
5930;DHT22;2990;48.746;9.236;2023-12-20T09:20:16;3.70;99.90
5930;DHT22;2990;48.746;9.236;2023-12-20T09:22:42;3.70;99.90
5930;DHT22;2990;48.746;9.236;2023-12-20T09:25:09;4.00;99.90
5930;DHT22;2990;48.746;9.236;2023-12-20T09:27:35;4.20;99.90
5930;DHT22;2990;48.746;9.236;2023-12-20T09:30:01;4.50;99.90
5930;DHT22;2990;48.746;9.236;2023-12-20T09:32:26;4.70;99.90
5930;DHT22;2990;48.746;9.236;2023-12-20T09:34:52;5.00;99.90
5930;DHT22;2990;48.746;9.236;2023-12-20T09:37:17;5.20;99.90
5930;DHT22;2990;48.746;9.236;2023-12-20T09:39:43;5.40;17.80
5930;DHT22;2990;48.746;9.236;2023-12-20T09:42:11;5.50;1.00
5930;DHT22;2990;48.746;9.236;2023-12-20T09:44:37;5.50;1.00
5930;DHT22;2990;48.746;9.236;2023-12-20T09:47:07;5.60;1.00
5930;DHT22;2990;48.746;9.236;2023-12-20T09:49:33;5.80;99.90
5930;DHT22;2990;48.746;9.236;2023-12-20T09:52:00;5.90;99.90
5930;DHT22;2990;48.746;9.236;2023-12-20T09:54:27;5.90;1.00
5930;DHT22;2990;48.746;9.236;2023-12-20T09:56:53;6.00;1.00
5930;DHT22;2990;48.746;9.236;2023-12-20T09:59:19;6.10;99.90
5930;DHT22;2990;48.746;9.236;2023-12-20T10:01:44;6.20;1.00
5930;DHT22;2990;48.746;9.236;2023-12-20T10:04:12;6.10;1.00
5930;DHT22;2990;48.746;9.236;2023-12-20T10:06:42;6.00;99.90
5930;DHT22;2990;48.746;9.236;2023-12-20T10:09:09;6.00;1.00
5930;DHT22;2990;48.746;9.236;2023-12-20T10:11:36;6.10;1.00
5930;DHT22;2990;48.746;9.236;2023-12-20T10:14:05;6.00;1.00
5930;DHT22;2990;48.746;9.236;2023-12-20T10:16:32;6.10;1.00
5930;DHT22;2990;48.746;9.236;2023-12-20T10:18:59;6.20;99.90
5930;DHT22;2990;48.746;9.236;2023-12-20T10:21:26;6.20;1.00
5930;DHT22;2990;48.746;9.236;2023-12-20T10:23:54;6.20;1.00
5930;DHT22;2990;48.746;9.236;2023-12-20T10:26:25;6.30;99.90
5930;DHT22;2990;48.746;9.236;2023-12-20T10:28:54;6.40;1.00
5930;DHT22;2990;48.746;9.236;2023-12-20T10:31:46;6.30;99.90
5930;DHT22;2990;48.746;9.236;2023-12-20T10:34:12;6.10;1.00
5930;DHT22;2990;48.746;9.236;2023-12-20T10:36:37;5.80;1.00
5930;DHT22;2990;48.746;9.236;2023-12-20T10:39:03;5.70;1.00
5930;DHT22;2990;48.746;9.236;2023-12-20T10:41:33;5.60;1.00
5930;DHT22;2990;48.746;9.236;2023-12-20T10:44:00;5.60;99.90
5930;DHT22;2990;48.746;9.236;2023-12-20T10:46:27;5.50;10.50
5930;DHT22;2990;48.746;9.236;2023-12-20T10:48:54;5.50;77.90
5930;DHT22;2990;48.746;9.236;2023-12-20T10:51:20;5.50;99.90
5930;DHT22;2990;48.746;9.236;2023-12-20T10:53:49;5.50;1.00
5930;DHT22;2990;48.746;9.236;2023-12-20T10:56:17;5.50;49.20
5930;DHT22;2990;48.746;9.236;2023-12-20T10:58:50;5.40;1.00
5930;DHT22;2990;48.746;9.236;2023-12-20T11:01:19;5.40;1.00
5930;DHT22;2990;48.746;9.236;2023-12-20T11:03:50;5.30;48.30
5930;DHT22;2990;48.746;9.236;2023-12-20T11:12:10;5.30;1.00
5930;DHT22;2990;48.746;9.236;2023-12-20T11:14:46;5.30;99.90
5930;DHT22;2990;48.746;9.236;2023-12-20T11:17:12;5.20;99.90
5930;DHT22;2990;48.746;9.236;2023-12-20T11:20:06;5.20;99.90
5930;DHT22;2990;48.746;9.236;2023-12-20T11:22:33;5.20;99.90
5930;DHT22;2990;48.746;9.236;2023-12-20T11:25:06;5.20;1.00
5930;DHT22;2990;48.746;9.236;2023-12-20T11:27:33;5.20;1.00
5930;DHT22;2990;48.746;9.236;2023-12-20T11:29:59;5.20;1.00
5930;DHT22;2990;48.746;9.236;2023-12-20T11:35:00;5.00;1.00
5930;DHT22;2990;48.746;9.236;2023-12-20T11:37:35;5.00;1.00
5930;DHT22;2990;48.746;9.236;2023-12-20T11:40:02;5.00;1.00
5930;DHT22;2990;48.746;9.236;2023-12-20T11:42:39;4.90;1.00
5930;DHT22;2990;48.746;9.236;2023-12-20T11:45:09;4.90;1.00
5930;DHT22;2990;48.746;9.236;2023-12-20T11:47:35;4.80;1.00
5930;DHT22;2990;48.746;9.236;2023-12-20T11:50:01;4.80;99.90
5930;DHT22;2990;48.746;9.236;2023-12-20T11:52:29;4.80;1.00
5930;DHT22;2990;48.746;9.236;2023-12-20T11:54:55;4.80;1.00
5930;DHT22;2990;48.746;9.236;2023-12-20T11:57:20;4.80;99.90
5930;DHT22;2990;48.746;9.236;2023-12-20T11:59:46;4.80;1.00
5930;DHT22;2990;48.746;9.236;2023-12-20T12:02:12;4.80;99.90
5930;DHT22;2990;48.746;9.236;2023-12-20T12:04:38;4.80;99.90
5930;DHT22;2990;48.746;9.236;2023-12-20T12:07:03;4.80;99.90
5930;DHT22;2990;48.746;9.236;2023-12-20T12:09:29;4.80;99.90
5930;DHT22;2990;48.746;9.236;2023-12-20T12:11:55;4.70;1.00
5930;DHT22;2990;48.746;9.236;2023-12-20T12:14:20;4.70;1.00
5930;DHT22;2990;48.746;9.236;2023-12-20T12:16:46;4.70;99.90
5930;DHT22;2990;48.746;9.236;2023-12-20T12:19:22;4.70;1.00
5930;DHT22;2990;48.746;9.236;2023-12-20T12:21:49;4.70;24.20
5930;DHT22;2990;48.746;9.236;2023-12-20T12:24:14;4.70;1.00
5930;DHT22;2990;48.746;9.236;2023-12-20T12:26:40;4.80;1.00
5930;DHT22;2990;48.746;9.236;2023-12-20T12:29:09;4.80;56.10
5930;DHT22;2990;48.746;9.236;2023-12-20T12:31:35;4.80;1.00
5930;DHT22;2990;48.746;9.236;2023-12-20T12:34:01;4.80;99.90
5930;DHT22;2990;48.746;9.236;2023-12-20T12:36:28;4.80;1.00
5930;DHT22;2990;48.746;9.236;2023-12-20T12:38:56;4.80;99.90
5930;DHT22;2990;48.746;9.236;2023-12-20T12:41:22;4.80;99.90
5930;DHT22;2990;48.746;9.236;2023-12-20T12:43:48;4.80;1.00
5930;DHT22;2990;48.746;9.236;2023-12-20T12:46:14;4.80;99.90
5930;DHT22;2990;48.746;9.236;2023-12-20T12:48:39;4.80;17.70
5930;DHT22;2990;48.746;9.236;2023-12-20T12:51:05;4.80;1.00
5930;DHT22;2990;48.746;9.236;2023-12-20T12:53:32;4.80;99.90
5930;DHT22;2990;48.746;9.236;2023-12-20T12:55:58;4.90;99.90
5930;DHT22;2990;48.746;9.236;2023-12-20T12:58:23;4.90;1.00
5930;DHT22;2990;48.746;9.236;2023-12-20T13:00:50;5.00;1.00
5930;DHT22;2990;48.746;9.236;2023-12-20T13:03:16;5.00;1.00
5930;DHT22;2990;48.746;9.236;2023-12-20T13:05:42;5.00;99.90
5930;DHT22;2990;48.746;9.236;2023-12-20T13:08:07;5.00;1.00
5930;DHT22;2990;48.746;9.236;2023-12-20T13:10:33;5.00;1.00
5930;DHT22;2990;48.746;9.236;2023-12-20T13:12:58;5.00;1.00
5930;DHT22;2990;48.746;9.236;2023-12-20T13:15:24;5.00;99.90
5930;DHT22;2990;48.746;9.236;2023-12-20T13:17:49;5.10;99.90
5930;DHT22;2990;48.746;9.236;2023-12-20T13:20:16;5.10;99.90
5930;DHT22;2990;48.746;9.236;2023-12-20T13:22:41;5.10;43.90
5930;DHT22;2990;48.746;9.236;2023-12-20T13:25:07;5.00;1.00
5930;DHT22;2990;48.746;9.236;2023-12-20T13:27:33;5.00;1.00
5930;DHT22;2990;48.746;9.236;2023-12-20T13:29:58;5.00;1.00
5930;DHT22;2990;48.746;9.236;2023-12-20T13:32:24;5.00;1.00
5930;DHT22;2990;48.746;9.236;2023-12-20T13:34:50;5.00;1.00
5930;DHT22;2990;48.746;9.236;2023-12-20T13:37:16;5.00;1.00
5930;DHT22;2990;48.746;9.236;2023-12-20T13:39:41;5.10;99.90
5930;DHT22;2990;48.746;9.236;2023-12-20T13:42:07;5.10;1.00
5930;DHT22;2990;48.746;9.236;2023-12-20T13:44:32;5.20;1.00
5930;DHT22;2990;48.746;9.236;2023-12-20T13:46:58;5.20;99.90
5930;DHT22;2990;48.746;9.236;2023-12-20T13:49:23;5.20;3.60
5930;DHT22;2990;48.746;9.236;2023-12-20T13:51:51;5.20;1.00
5930;DHT22;2990;48.746;9.236;2023-12-20T13:54:16;5.20;1.00
5930;DHT22;2990;48.746;9.236;2023-12-20T13:56:45;5.20;99.90
5930;DHT22;2990;48.746;9.236;2023-12-20T13:59:11;5.10;1.00
5930;DHT22;2990;48.746;9.236;2023-12-20T14:01:38;5.10;50.90
5930;DHT22;2990;48.746;9.236;2023-12-20T14:04:03;5.00;84.30
5930;DHT22;2990;48.746;9.236;2023-12-20T14:06:29;5.00;1.00
5930;DHT22;2990;48.746;9.236;2023-12-20T14:08:55;4.90;1.00
5930;DHT22;2990;48.746;9.236;2023-12-20T14:11:20;4.90;1.00
5930;DHT22;2990;48.746;9.236;2023-12-20T14:13:46;4.90;1.00
5930;DHT22;2990;48.746;9.236;2023-12-20T14:16:11;4.80;99.90
5930;DHT22;2990;48.746;9.236;2023-12-20T14:18:38;4.80;1.00
5930;DHT22;2990;48.746;9.236;2023-12-20T14:21:05;4.80;1.00
5930;DHT22;2990;48.746;9.236;2023-12-20T14:23:31;4.80;1.00
5930;DHT22;2990;48.746;9.236;2023-12-20T14:25:59;4.80;1.00
5930;DHT22;2990;48.746;9.236;2023-12-20T14:28:25;4.70;1.00
5930;DHT22;2990;48.746;9.236;2023-12-20T14:30:50;4.70;96.10
5930;DHT22;2990;48.746;9.236;2023-12-20T14:33:16;4.70;99.90
5930;DHT22;2990;48.746;9.236;2023-12-20T14:35:41;4.70;1.00
5930;DHT22;2990;48.746;9.236;2023-12-20T14:38:09;4.60;99.90
5930;DHT22;2990;48.746;9.236;2023-12-20T14:40:35;4.60;1.00
5930;DHT22;2990;48.746;9.236;2023-12-20T14:43:00;4.60;1.00
5930;DHT22;2990;48.746;9.236;2023-12-20T14:45:26;4.60;1.00
5930;DHT22;2990;48.746;9.236;2023-12-20T14:47:52;4.50;1.00
5930;DHT22;2990;48.746;9.236;2023-12-20T14:50:18;4.50;99.90
5930;DHT22;2990;48.746;9.236;2023-12-20T14:52:44;4.50;1.00
5930;DHT22;2990;48.746;9.236;2023-12-20T14:55:11;4.40;99.90
5930;DHT22;2990;48.746;9.236;2023-12-20T14:57:36;4.40;1.00
5930;DHT22;2990;48.746;9.236;2023-12-20T15:00:02;4.40;1.00
5930;DHT22;2990;48.746;9.236;2023-12-20T15:02:27;4.40;99.90
5930;DHT22;2990;48.746;9.236;2023-12-20T15:04:53;4.30;99.90
5930;DHT22;2990;48.746;9.236;2023-12-20T15:07:19;4.30;99.90
5930;DHT22;2990;48.746;9.236;2023-12-20T15:09:45;4.20;1.00
5930;DHT22;2990;48.746;9.236;2023-12-20T15:12:11;4.20;1.00
5930;DHT22;2990;48.746;9.236;2023-12-20T15:14:38;4.20;1.00
5930;DHT22;2990;48.746;9.236;2023-12-20T15:17:03;4.20;1.00
5930;DHT22;2990;48.746;9.236;2023-12-20T15:19:30;4.20;1.00
5930;DHT22;2990;48.746;9.236;2023-12-20T15:21:56;4.10;1.00
5930;DHT22;2990;48.746;9.236;2023-12-20T15:24:21;4.10;1.00
5930;DHT22;2990;48.746;9.236;2023-12-20T15:26:54;4.10;1.00
5930;DHT22;2990;48.746;9.236;2023-12-20T15:29:20;4.10;1.00
5930;DHT22;2990;48.746;9.236;2023-12-20T15:31:46;4.00;1.00
5930;DHT22;2990;48.746;9.236;2023-12-20T15:34:13;4.00;1.00
5930;DHT22;2990;48.746;9.236;2023-12-20T15:36:39;4.00;1.00
5930;DHT22;2990;48.746;9.236;2023-12-20T15:39:05;4.00;1.00
5930;DHT22;2990;48.746;9.236;2023-12-20T15:41:30;4.00;1.00
5930;DHT22;2990;48.746;9.236;2023-12-20T15:43:56;4.00;1.00
5930;DHT22;2990;48.746;9.236;2023-12-20T15:46:22;3.90;1.00
5930;DHT22;2990;48.746;9.236;2023-12-20T15:48:47;3.90;1.00
5930;DHT22;2990;48.746;9.236;2023-12-20T15:51:14;3.90;1.00
5930;DHT22;2990;48.746;9.236;2023-12-20T15:53:40;3.90;1.00
5930;DHT22;2990;48.746;9.236;2023-12-20T15:56:06;3.90;1.00
5930;DHT22;2990;48.746;9.236;2023-12-20T15:58:31;3.90;1.00
5930;DHT22;2990;48.746;9.236;2023-12-20T16:00:57;3.80;1.00
5930;DHT22;2990;48.746;9.236;2023-12-20T16:03:22;3.80;1.00
5930;DHT22;2990;48.746;9.236;2023-12-20T16:05:48;3.80;1.00
5930;DHT22;2990;48.746;9.236;2023-12-20T16:08:13;3.80;1.00
5930;DHT22;2990;48.746;9.236;2023-12-20T16:10:39;3.80;1.00
5930;DHT22;2990;48.746;9.236;2023-12-20T16:13:05;3.90;1.00
5930;DHT22;2990;48.746;9.236;2023-12-20T16:15:31;3.80;1.00
5930;DHT22;2990;48.746;9.236;2023-12-20T16:17:56;3.80;1.00
5930;DHT22;2990;48.746;9.236;2023-12-20T16:20:22;3.80;1.00
5930;DHT22;2990;48.746;9.236;2023-12-20T16:22:48;3.80;1.00
5930;DHT22;2990;48.746;9.236;2023-12-20T16:25:14;3.80;1.00
5930;DHT22;2990;48.746;9.236;2023-12-20T16:27:39;3.80;1.00
5930;DHT22;2990;48.746;9.236;2023-12-20T16:30:06;3.80;1.00
5930;DHT22;2990;48.746;9.236;2023-12-20T16:32:32;3.70;1.00